createdAt,value
2022-12-31T00:00:48.226Z,21.20
2022-12-31T00:04:04.802Z,22.70
2022-12-31T00:07:08.694Z,21.80
2022-12-31T00:10:12.608Z,21.70
2022-12-31T00:13:17.296Z,20.80
2022-12-31T00:16:24.334Z,19.90
2022-12-31T00:19:28.355Z,20.20
2022-12-31T00:22:33.255Z,19.30
2022-12-31T00:25:38.014Z,26.10
2022-12-31T00:28:42.895Z,21.30
2022-12-31T00:31:46.863Z,21.20
2022-12-31T00:34:50.892Z,22.00
2022-12-31T00:37:54.852Z,23.00
2022-12-31T00:40:58.757Z,21.10
2022-12-31T00:44:03.107Z,21.30
2022-12-31T00:47:07.055Z,19.50
2022-12-31T00:50:11.070Z,19.00
2022-12-31T00:53:15.205Z,24.10
2022-12-31T00:56:22.895Z,20.50
2022-12-31T00:59:26.795Z,21.90
2022-12-31T01:02:30.815Z,20.40
2022-12-31T01:05:37.098Z,18.90
2022-12-31T01:08:41.381Z,17.00
2022-12-31T01:11:46.453Z,16.80
2022-12-31T01:14:50.433Z,17.90
2022-12-31T01:17:54.346Z,18.10
2022-12-31T01:21:02.156Z,24.30
2022-12-31T01:24:07.660Z,18.70
2022-12-31T01:27:11.626Z,18.00
2022-12-31T01:30:15.537Z,19.00
2022-12-31T01:33:20.072Z,17.00
2022-12-31T01:36:28.121Z,16.90
2022-12-31T01:39:32.018Z,18.10
2022-12-31T01:42:36.932Z,18.40
2022-12-31T01:45:42.433Z,18.00
2022-12-31T01:48:51.334Z,15.10
2022-12-31T01:52:05.115Z,13.80
2022-12-31T01:55:15.053Z,10.40
2022-12-31T01:58:25.894Z,12.10
2022-12-31T02:01:32.248Z,17.50
2022-12-31T02:04:36.377Z,15.60
2022-12-31T02:07:40.320Z,15.00
2022-12-31T02:10:44.336Z,15.10
2022-12-31T02:13:51.513Z,10.40
2022-12-31T02:17:07.366Z,15.00
2022-12-31T02:20:54.535Z,12.90
2022-12-31T02:24:34.498Z,12.70
2022-12-31T02:28:08.913Z,12.50
2022-12-31T02:31:18.713Z,10.70
2022-12-31T02:34:54.489Z,14.00
2022-12-31T02:38:07.444Z,11.90
2022-12-31T02:41:37.016Z,15.00
2022-12-31T02:44:42.696Z,13.30
2022-12-31T02:48:24.947Z,12.50
2022-12-31T02:51:39.883Z,12.70
2022-12-31T02:55:07.120Z,12.60
2022-12-31T02:58:22.931Z,13.20
2022-12-31T03:02:10.673Z,14.20
2022-12-31T03:05:17.409Z,10.00
2022-12-31T03:08:23.252Z,10.00
2022-12-31T03:11:46.312Z,11.00
2022-12-31T03:14:50.887Z,11.40
2022-12-31T03:18:06.675Z,10.80
2022-12-31T03:21:32.046Z,11.80
2022-12-31T03:24:55.016Z,12.80
2022-12-31T03:28:00.743Z,10.90
2022-12-31T03:31:05.535Z,9.90
2022-12-31T03:34:09.433Z,10.30
2022-12-31T03:37:13.481Z,9.20
2022-12-31T03:40:18.886Z,11.30
2022-12-31T03:43:23.099Z,9.40
2022-12-31T03:46:27.541Z,8.50
2022-12-31T03:49:31.549Z,10.60
2022-12-31T03:52:36.176Z,9.80
2022-12-31T03:55:40.132Z,10.10
2022-12-31T03:58:44.057Z,9.50
2022-12-31T04:01:48.093Z,9.70
2022-12-31T04:07:56.762Z,8.50
2022-12-31T04:11:01.162Z,9.90
2022-12-31T04:14:05.795Z,8.60
2022-12-31T04:17:09.837Z,8.70
2022-12-31T04:20:15.091Z,9.90
2022-12-31T04:23:19.210Z,9.10
2022-12-31T04:26:23.321Z,10.00
2022-12-31T04:29:27.352Z,9.00
2022-12-31T04:32:31.354Z,9.30
2022-12-31T04:35:35.364Z,9.70
2022-12-31T04:38:39.484Z,9.00
2022-12-31T04:41:51.449Z,9.50
2022-12-31T04:44:55.415Z,8.90
2022-12-31T04:47:59.421Z,8.40
2022-12-31T04:51:04.354Z,9.20
2022-12-31T04:54:08.443Z,11.10
2022-12-31T04:57:12.382Z,9.80
2022-12-31T05:00:17.128Z,9.30
2022-12-31T05:03:23.289Z,9.00
2022-12-31T05:06:27.283Z,8.80
2022-12-31T05:09:31.308Z,9.10
2022-12-31T05:12:35.201Z,8.50
2022-12-31T05:15:40.154Z,8.00
2022-12-31T05:18:44.179Z,9.00
2022-12-31T05:22:08.131Z,8.30
2022-12-31T05:25:12.103Z,10.20
2022-12-31T05:28:17.106Z,10.10
2022-12-31T05:31:21.042Z,9.00
2022-12-31T05:34:25.073Z,9.50
2022-12-31T05:37:30.201Z,9.50
2022-12-31T05:40:34.209Z,9.40
2022-12-31T05:43:38.138Z,9.10
2022-12-31T05:46:42.134Z,9.50
2022-12-31T05:49:46.186Z,8.90
2022-12-31T05:52:51.035Z,10.30
2022-12-31T05:55:55.102Z,10.40
2022-12-31T05:58:59.033Z,9.30
2022-12-31T06:02:03.031Z,10.00
2022-12-31T06:05:07.815Z,10.10
2022-12-31T06:08:12.616Z,10.40
2022-12-31T06:11:17.017Z,10.30
2022-12-31T06:14:21.037Z,10.60
2022-12-31T06:17:25.260Z,8.50
2022-12-31T06:20:29.198Z,10.00
2022-12-31T06:23:33.683Z,10.20
2022-12-31T06:26:37.726Z,10.80
2022-12-31T06:29:41.768Z,9.50
2022-12-31T06:32:45.905Z,9.70
2022-12-31T06:35:55.709Z,9.00
2022-12-31T06:39:00.207Z,10.10
2022-12-31T06:42:04.764Z,9.70
2022-12-31T06:45:09.464Z,10.20
2022-12-31T06:48:13.501Z,11.40
2022-12-31T06:51:20.172Z,9.90
2022-12-31T06:54:24.203Z,9.70
2022-12-31T06:57:28.687Z,11.40
2022-12-31T07:00:33.248Z,9.10
2022-12-31T07:03:59.243Z,9.20
2022-12-31T07:07:41.513Z,9.00
2022-12-31T07:10:56.474Z,9.10
2022-12-31T07:14:26.700Z,7.70
2022-12-31T07:17:59.293Z,9.10
2022-12-31T07:21:03.922Z,9.30
2022-12-31T07:24:10.321Z,8.30
2022-12-31T07:27:32.618Z,8.90
2022-12-31T07:30:42.796Z,8.00
2022-12-31T07:33:59.287Z,9.10
2022-12-31T07:37:22.254Z,7.80
2022-12-31T07:41:10.068Z,8.90
2022-12-31T07:44:26.469Z,7.90
2022-12-31T07:47:31.654Z,8.80
2022-12-31T07:50:36.129Z,8.50
2022-12-31T07:53:39.998Z,8.40
2022-12-31T07:56:45.342Z,8.00
2022-12-31T07:59:49.252Z,7.90
2022-12-31T08:03:03.242Z,7.60
2022-12-31T08:06:07.572Z,7.00
2022-12-31T08:09:20.558Z,7.10
2022-12-31T08:12:28.036Z,6.90
2022-12-31T08:15:33.257Z,7.60
2022-12-31T08:18:37.991Z,7.50
2022-12-31T08:21:47.884Z,6.90
2022-12-31T08:25:33.698Z,7.30
2022-12-31T08:28:43.731Z,7.10
2022-12-31T08:31:59.348Z,7.40
2022-12-31T08:35:21.394Z,6.70
2022-12-31T08:38:38.875Z,6.60
2022-12-31T08:41:49.760Z,7.00
2022-12-31T08:45:24.870Z,7.00
2022-12-31T08:48:44.192Z,7.10
2022-12-31T08:51:48.892Z,7.10
2022-12-31T08:54:53.709Z,6.50
2022-12-31T08:58:34.487Z,6.30
2022-12-31T09:02:17.400Z,6.60
2022-12-31T09:05:59.511Z,6.70
2022-12-31T09:09:17.695Z,6.00
2022-12-31T09:12:34.984Z,6.20
2022-12-31T09:16:16.940Z,6.30
2022-12-31T09:19:20.905Z,5.10
2022-12-31T09:22:25.306Z,6.60
2022-12-31T09:25:30.291Z,6.00
2022-12-31T09:28:49.962Z,4.80
2022-12-31T09:31:58.760Z,5.50
2022-12-31T09:35:31.430Z,5.40
2022-12-31T09:38:56.566Z,5.00
2022-12-31T09:42:19.706Z,5.10
2022-12-31T09:45:54.788Z,4.80
2022-12-31T09:49:29.685Z,5.10
2022-12-31T09:52:55.001Z,4.70
2022-12-31T09:56:20.646Z,6.10
2022-12-31T09:59:33.302Z,5.80
2022-12-31T10:03:08.765Z,5.50
2022-12-31T10:06:55.563Z,5.80
2022-12-31T10:10:09.473Z,5.60
2022-12-31T10:13:34.763Z,5.20
2022-12-31T10:16:52.383Z,5.30
2022-12-31T10:20:05.873Z,5.20
2022-12-31T10:23:31.974Z,5.30
2022-12-31T10:27:10.064Z,5.20
2022-12-31T10:30:24.148Z,4.80
2022-12-31T10:33:59.213Z,6.20
2022-12-31T10:37:24.925Z,5.60
2022-12-31T10:40:43.815Z,4.60
2022-12-31T10:44:09.307Z,5.30
2022-12-31T10:47:41.469Z,4.90
2022-12-31T10:51:19.166Z,5.50
2022-12-31T10:54:47.655Z,5.10
2022-12-31T10:58:10.233Z,4.70
2022-12-31T11:01:44.991Z,5.30
2022-12-31T11:05:29.428Z,4.10
2022-12-31T11:09:11.435Z,4.90
2022-12-31T11:12:33.010Z,5.30
2022-12-31T11:16:10.919Z,4.70
2022-12-31T11:19:33.530Z,4.40
2022-12-31T11:22:55.465Z,5.20
2022-12-31T11:26:19.033Z,5.50
2022-12-31T11:29:48.243Z,4.20
2022-12-31T11:33:21.008Z,4.60
2022-12-31T11:36:55.977Z,4.60
2022-12-31T11:40:21.192Z,4.50
2022-12-31T11:43:55.476Z,3.90
2022-12-31T11:47:26.114Z,4.20
2022-12-31T11:50:55.967Z,3.90
2022-12-31T11:54:31.068Z,3.90
2022-12-31T11:57:38.182Z,4.30
2022-12-31T12:00:57.357Z,3.90
2022-12-31T12:04:02.107Z,3.90
2022-12-31T12:07:13.967Z,4.30
2022-12-31T12:10:45.679Z,3.80
2022-12-31T12:13:50.080Z,3.90
2022-12-31T12:17:04.062Z,3.70
2022-12-31T12:20:18.613Z,4.10
2022-12-31T12:23:25.474Z,4.40
2022-12-31T12:26:43.254Z,3.70
2022-12-31T12:29:48.019Z,4.30
2022-12-31T12:32:57.305Z,4.50
2022-12-31T12:36:12.981Z,4.00
2022-12-31T12:39:30.024Z,4.10
2022-12-31T12:42:33.937Z,4.40
2022-12-31T12:45:51.160Z,3.90
2022-12-31T12:48:58.183Z,3.70
2022-12-31T12:52:28.211Z,4.00
2022-12-31T12:55:54.265Z,3.80
2022-12-31T12:59:10.275Z,3.90
2022-12-31T13:02:26.954Z,4.00
2022-12-31T13:05:47.413Z,3.90
2022-12-31T13:09:10.195Z,4.10
2022-12-31T13:12:27.712Z,4.10
2022-12-31T13:15:44.107Z,4.10
2022-12-31T13:18:57.344Z,3.40
2022-12-31T13:22:11.545Z,4.70
2022-12-31T13:25:18.270Z,4.00
2022-12-31T13:28:24.966Z,4.10
2022-12-31T13:31:36.258Z,4.00
2022-12-31T13:34:44.135Z,4.00
2022-12-31T13:37:50.005Z,4.20
2022-12-31T13:41:12.257Z,3.80
2022-12-31T13:47:42.192Z,4.30
2022-12-31T13:54:12.858Z,3.90
2022-12-31T13:57:35.823Z,4.20
2022-12-31T14:01:02.854Z,4.00
2022-12-31T14:04:15.339Z,3.80
2022-12-31T14:07:35.384Z,4.00
2022-12-31T14:11:13.599Z,3.70
2022-12-31T14:14:49.451Z,4.10
2022-12-31T14:18:17.721Z,3.90
2022-12-31T14:21:32.100Z,4.40
2022-12-31T14:24:52.384Z,4.50
2022-12-31T14:27:59.488Z,4.80
2022-12-31T14:31:12.715Z,4.80
2022-12-31T14:34:43.125Z,4.40
2022-12-31T14:38:20.219Z,4.00
2022-12-31T14:41:49.347Z,4.60
2022-12-31T14:45:06.889Z,3.90
2022-12-31T14:48:23.921Z,4.20
2022-12-31T14:51:29.859Z,3.70
2022-12-31T14:54:37.883Z,4.20
2022-12-31T14:58:25.857Z,4.40
2022-12-31T15:01:15.262Z,4.20
2022-12-31T15:04:42.157Z,4.20
2022-12-31T15:07:49.019Z,4.00
2022-12-31T15:11:23.208Z,3.90
2022-12-31T15:14:55.736Z,4.30
2022-12-31T15:18:19.987Z,3.70
2022-12-31T15:21:42.257Z,3.80
2022-12-31T15:24:47.721Z,4.10
2022-12-31T15:27:52.729Z,3.60
2022-12-31T15:31:03.659Z,4.60
2022-12-31T15:34:32.973Z,4.30
2022-12-31T15:37:37.064Z,4.10
2022-12-31T15:40:46.149Z,3.80
2022-12-31T15:43:59.746Z,4.00
2022-12-31T15:47:23.930Z,3.90
2022-12-31T15:50:30.063Z,3.80
2022-12-31T15:53:43.841Z,4.40
2022-12-31T15:56:49.495Z,4.00
2022-12-31T16:00:02.027Z,4.30
2022-12-31T16:03:22.531Z,4.60
2022-12-31T16:06:30.543Z,4.20
2022-12-31T16:09:36.058Z,4.40
2022-12-31T16:12:44.657Z,5.00
2022-12-31T16:15:53.144Z,2.90
2022-12-31T16:18:58.444Z,4.20
2022-12-31T16:22:09.299Z,3.70
2022-12-31T16:25:36.547Z,4.60
2022-12-31T16:28:40.580Z,4.70
2022-12-31T16:31:46.580Z,4.30
2022-12-31T16:34:50.721Z,3.90
2022-12-31T16:38:07.353Z,4.50
2022-12-31T16:41:20.434Z,3.60
2022-12-31T16:44:29.425Z,4.70
2022-12-31T16:47:36.366Z,3.90
2022-12-31T16:50:45.099Z,3.60
2022-12-31T16:53:50.438Z,4.30
2022-12-31T16:56:54.408Z,4.10
2022-12-31T17:00:03.712Z,3.70
2022-12-31T17:03:17.456Z,3.80
2022-12-31T17:06:22.443Z,3.40
2022-12-31T17:09:37.044Z,3.50
2022-12-31T17:13:25.043Z,3.90
2022-12-31T17:16:07.608Z,3.40
2022-12-31T17:19:40.972Z,3.10
2022-12-31T17:22:45.072Z,4.50
2022-12-31T17:25:48.999Z,3.90
2022-12-31T17:28:55.428Z,4.20
2022-12-31T17:32:01.456Z,3.70
2022-12-31T17:35:33.091Z,3.80
2022-12-31T17:38:37.094Z,3.40
2022-12-31T17:41:45.310Z,3.80
2022-12-31T17:44:49.725Z,4.20
2022-12-31T17:51:00.946Z,3.50
2022-12-31T17:54:14.915Z,4.20
2022-12-31T17:57:27.823Z,3.70
2022-12-31T18:00:33.468Z,3.90
2022-12-31T18:03:37.525Z,4.30
2022-12-31T18:06:42.324Z,5.20
2022-12-31T18:09:46.248Z,4.20
2022-12-31T18:12:51.070Z,4.10
2022-12-31T18:15:55.516Z,4.60
2022-12-31T18:19:01.052Z,4.40
2022-12-31T18:22:05.063Z,4.40
2022-12-31T18:25:21.240Z,4.10
2022-12-31T18:28:25.419Z,4.80
2022-12-31T18:31:30.978Z,3.90
2022-12-31T18:34:34.988Z,5.10
2022-12-31T18:37:38.906Z,4.00
2022-12-31T18:40:48.134Z,4.10
2022-12-31T18:43:52.465Z,4.80
2022-12-31T18:46:56.631Z,4.60
2022-12-31T18:50:00.562Z,4.10
2022-12-31T18:53:04.822Z,4.50
2022-12-31T18:56:15.126Z,3.90
2022-12-31T19:02:22.907Z,4.00
2022-12-31T19:05:32.425Z,5.10
2022-12-31T19:08:36.368Z,4.50
2022-12-31T19:11:41.915Z,3.90
2022-12-31T19:14:46.017Z,4.20
2022-12-31T19:17:50.244Z,5.10
2022-12-31T19:20:54.270Z,5.20
2022-12-31T19:23:58.223Z,4.80
2022-12-31T19:27:02.387Z,4.60
2022-12-31T19:30:12.124Z,5.00
2022-12-31T19:33:17.132Z,4.40
2022-12-31T19:36:21.109Z,5.10
2022-12-31T19:39:25.125Z,4.90
2022-12-31T19:42:29.137Z,4.90
2022-12-31T19:45:33.145Z,5.10
2022-12-31T19:48:37.125Z,5.10
2022-12-31T19:51:41.962Z,4.60
2022-12-31T19:54:45.971Z,5.40
2022-12-31T19:57:49.960Z,5.80
2022-12-31T20:01:01.896Z,4.70
2022-12-31T20:04:07.400Z,5.00
2022-12-31T20:07:11.405Z,4.80
2022-12-31T20:10:15.646Z,5.40
2022-12-31T20:13:19.549Z,4.90
2022-12-31T20:16:27.148Z,4.50
2022-12-31T20:19:31.240Z,5.50
2022-12-31T20:22:35.283Z,5.00
2022-12-31T20:25:39.294Z,4.80
2022-12-31T20:28:43.508Z,4.80
2022-12-31T20:31:48.039Z,4.60
2022-12-31T20:37:56.269Z,5.20
2022-12-31T20:41:05.905Z,4.60
2022-12-31T20:44:09.834Z,4.70
2022-12-31T20:47:13.962Z,4.20
2022-12-31T20:50:18.057Z,5.10
2022-12-31T20:53:22.292Z,4.50
2022-12-31T20:56:28.730Z,5.40
2022-12-31T20:59:32.656Z,4.80
2022-12-31T21:02:42.168Z,4.40
2022-12-31T21:05:51.906Z,4.70
2022-12-31T21:08:58.143Z,5.10
2022-12-31T21:12:21.005Z,4.70
2022-12-31T21:15:24.948Z,4.90
2022-12-31T21:18:29.031Z,4.70
2022-12-31T21:21:33.661Z,5.30
2022-12-31T21:27:43.124Z,4.80
2022-12-31T21:30:47.074Z,4.90
2022-12-31T21:33:51.087Z,4.10
2022-12-31T21:36:55.271Z,3.80
2022-12-31T21:39:59.259Z,4.20
2022-12-31T21:43:03.259Z,4.30
2022-12-31T21:46:07.533Z,3.90
2022-12-31T21:49:11.642Z,4.20
2022-12-31T21:52:28.538Z,5.00
2022-12-31T21:55:51.111Z,4.40
2022-12-31T21:59:16.931Z,4.00
2022-12-31T22:02:39.928Z,4.80
2022-12-31T22:05:52.929Z,4.80
2022-12-31T22:08:57.256Z,4.80
2022-12-31T22:12:01.264Z,4.60
2022-12-31T22:15:14.750Z,4.30
2022-12-31T22:18:20.764Z,5.70
2022-12-31T22:21:25.832Z,5.00
2022-12-31T22:24:29.820Z,5.20
2022-12-31T22:27:33.943Z,4.20
2022-12-31T22:30:38.059Z,5.00
2022-12-31T22:33:42.955Z,4.40
2022-12-31T22:36:47.014Z,5.30
2022-12-31T22:39:50.921Z,4.80
2022-12-31T22:42:55.713Z,4.80
2022-12-31T22:46:06.007Z,4.90
2022-12-31T22:49:10.524Z,4.90
2022-12-31T22:52:14.399Z,4.40
2022-12-31T22:55:18.483Z,4.20
2022-12-31T22:58:24.333Z,4.10
2022-12-31T23:01:28.725Z,4.40
2022-12-31T23:04:32.977Z,4.90
2022-12-31T23:07:37.107Z,10.20
2022-12-31T23:10:59.834Z,10.40
2022-12-31T23:14:23.518Z,10.40
2022-12-31T23:17:46.205Z,10.60
2022-12-31T23:21:08.793Z,9.70
2022-12-31T23:24:19.202Z,9.80
2022-12-31T23:27:25.775Z,7.70
2022-12-31T23:30:29.798Z,8.10
2022-12-31T23:33:33.811Z,6.10
2022-12-31T23:36:37.703Z,6.30
2022-12-31T23:39:42.571Z,5.70
2022-12-31T23:42:46.573Z,5.30
2022-12-31T23:45:51.788Z,4.90
2022-12-31T23:48:55.833Z,5.40
2022-12-31T23:51:59.849Z,4.60
2022-12-31T23:55:04.251Z,4.50
